Polonia, Wisconsin
Current Conditions -  °F | °C
As of 7:15 PM on Thursday 18 Dec 2014 (Local Time) from KSTE Reporting Station
Clear Clear  
Wind Chill: 17°   Ceiling: Unl
Heat Index: 17°   Visibility: 10mi
Dew Point: 16°   Wind: 0mph
Humidity: 95%   Direction: NA
Pressure: 30.25"   Gusts: NA
Location:  44.5826°N, 89.4124°W
Report Text: KSTE 190115Z AUTO 00000KT 10SM CLR M08/M09 A3025 RMK AO2 T10841091
Loading
Personal Weather Stations






























Interactive Weather Map New forecast layout! Learn more

10-Day Weather Forecast

Advertisements
Track Severe Weather on mobile